createdAt,value
2019-06-01T00:02:35.024Z,70.00
2019-06-01T00:06:40.680Z,70.10
2019-06-01T00:10:45.332Z,70.10
2019-06-01T00:14:50.038Z,70.10
2019-06-01T00:18:54.618Z,70.20
2019-06-01T00:22:59.320Z,70.20
2019-06-01T00:27:03.883Z,70.10
2019-06-01T00:31:08.440Z,70.20
2019-06-01T00:35:12.996Z,70.20
2019-06-01T00:39:17.520Z,70.10
2019-06-01T00:43:22.083Z,70.20
2019-06-01T00:47:26.646Z,70.30
2019-06-01T00:51:31.297Z,70.30
2019-06-01T00:55:35.865Z,70.30
2019-06-01T00:59:40.421Z,70.30
2019-06-01T01:03:45.964Z,70.40
2019-06-01T01:07:51.491Z,70.40
2019-06-01T01:11:56.705Z,70.60
2019-06-01T01:16:01.279Z,70.50
2019-06-01T01:20:06.564Z,70.50
2019-06-01T01:28:23.954Z,70.60
2019-06-01T01:32:28.205Z,70.50
2019-06-01T01:36:33.659Z,69.40
2019-06-01T01:40:38.205Z,70.60
2019-06-01T01:44:42.758Z,70.70
2019-06-01T01:48:47.331Z,71.00
2019-06-01T01:52:52.734Z,70.90
2019-06-01T01:56:58.231Z,71.10
2019-06-01T02:01:20.746Z,69.60
2019-06-01T02:05:09.779Z,71.20
2019-06-01T02:09:14.344Z,71.00
2019-06-01T02:13:18.908Z,71.20
2019-06-01T02:17:23.468Z,71.20
2019-06-01T02:21:28.029Z,71.30
2019-06-01T02:25:32.691Z,71.20
2019-06-01T02:29:37.256Z,71.40
2019-06-01T02:33:41.830Z,71.40
2019-06-01T02:37:46.402Z,71.40
2019-06-01T02:41:50.970Z,71.30
2019-06-01T02:45:56.321Z,72.50
2019-06-01T02:50:01.381Z,71.40
2019-06-01T02:54:06.330Z,71.50
2019-06-01T02:58:11.023Z,71.40
2019-06-01T03:02:15.694Z,71.50
2019-06-01T03:06:20.848Z,71.00
2019-06-01T03:10:25.521Z,71.50
2019-06-01T03:14:31.610Z,71.50
2019-06-01T03:18:37.573Z,71.80
2019-06-01T03:22:43.469Z,71.70
2019-06-01T03:26:48.213Z,71.90
2019-06-01T03:30:52.777Z,72.40
2019-06-01T03:34:57.341Z,72.10
2019-06-01T03:39:03.946Z,71.90
2019-06-01T03:43:09.343Z,72.10
2019-06-01T03:47:14.009Z,72.20
2019-06-01T03:51:18.578Z,72.20
2019-06-01T03:55:23.140Z,72.40
2019-06-01T03:59:27.745Z,72.80
2019-06-01T04:03:32.366Z,72.90
2019-06-01T04:07:38.866Z,71.90
2019-06-01T04:11:43.107Z,72.90
2019-06-01T04:15:47.680Z,73.10
2019-06-01T04:19:52.241Z,73.20
2019-06-01T04:23:56.872Z,73.30
2019-06-01T04:28:02.105Z,73.40
2019-06-01T04:32:06.917Z,74.60
2019-06-01T04:36:11.501Z,74.30
2019-06-01T04:40:16.064Z,73.80
2019-06-01T04:44:20.627Z,74.50
2019-06-01T04:48:25.178Z,74.50
2019-06-01T04:52:29.693Z,77.50
2019-06-01T04:56:34.292Z,76.50
2019-06-01T05:00:38.869Z,74.60
2019-06-01T05:04:43.784Z,75.60
2019-06-01T05:08:48.354Z,75.60
2019-06-01T05:12:52.862Z,75.60
2019-06-01T05:16:57.431Z,75.60
2019-06-01T05:21:02.013Z,75.30
2019-06-01T05:25:08.811Z,75.30
2019-06-01T05:29:13.710Z,75.00
2019-06-01T05:33:35.294Z,74.90
2019-06-01T05:37:24.906Z,75.30
2019-06-01T05:41:29.504Z,75.10
2019-06-01T05:45:34.080Z,75.00
2019-06-01T05:49:38.648Z,75.20
2019-06-01T05:53:43.188Z,75.20
2019-06-01T05:57:47.792Z,76.00
2019-06-01T06:01:52.357Z,75.60
2019-06-01T06:05:56.944Z,76.40
2019-06-01T06:10:01.508Z,78.00
2019-06-01T06:14:06.153Z,76.40
2019-06-01T06:18:11.623Z,75.50
2019-06-01T06:22:16.300Z,75.80
2019-06-01T06:26:22.380Z,77.10
2019-06-01T06:30:27.108Z,75.70
2019-06-01T06:34:31.625Z,75.70
2019-06-01T06:38:36.189Z,75.30
2019-06-01T06:42:40.737Z,71.50
2019-06-01T06:46:45.296Z,71.70
2019-06-01T06:50:49.842Z,70.50
2019-06-01T06:54:54.373Z,68.70
2019-06-01T06:58:58.953Z,68.50
2019-06-01T07:03:03.516Z,67.30
2019-06-01T07:07:08.082Z,67.10
2019-06-01T07:11:12.649Z,62.80
2019-06-01T07:15:17.195Z,63.00
2019-06-01T07:19:21.764Z,62.30
2019-06-01T07:23:26.296Z,61.30
2019-06-01T07:27:30.848Z,62.40
2019-06-01T07:31:35.418Z,60.60
2019-06-01T07:35:39.938Z,57.20
2019-06-01T07:39:44.497Z,60.10
2019-06-01T07:43:49.069Z,59.10
2019-06-01T07:47:53.597Z,58.70
2019-06-01T07:51:58.182Z,55.60
2019-06-01T07:56:02.689Z,56.40
2019-06-01T08:00:07.626Z,55.70
2019-06-01T08:04:12.207Z,54.00
2019-06-01T08:08:16.788Z,55.80
2019-06-01T08:12:21.315Z,55.20
2019-06-01T08:16:25.983Z,55.10
2019-06-01T08:20:30.557Z,57.30
2019-06-01T08:24:35.128Z,55.80
2019-06-01T08:28:39.640Z,54.80
2019-06-01T08:32:44.192Z,56.30
2019-06-01T08:36:48.766Z,56.90
2019-06-01T08:40:53.306Z,55.20
2019-06-01T08:44:57.862Z,53.90
2019-06-01T08:49:02.369Z,54.80
2019-06-01T08:53:07.023Z,55.30
2019-06-01T08:57:11.558Z,55.30
2019-06-01T09:01:16.151Z,55.90
2019-06-01T09:05:24.338Z,56.10
2019-06-01T09:09:26.958Z,55.90
2019-06-01T09:13:31.538Z,57.10
2019-06-01T09:17:36.085Z,56.20
2019-06-01T09:21:40.648Z,55.60
2019-06-01T09:25:45.165Z,55.30
2019-06-01T09:29:49.728Z,56.20
2019-06-01T09:33:54.785Z,56.70
2019-06-01T09:37:59.329Z,57.80
2019-06-01T09:42:03.896Z,58.40
2019-06-01T09:46:08.420Z,58.50
2019-06-01T09:50:12.969Z,59.30
2019-06-01T09:54:17.580Z,59.00
2019-06-01T09:58:22.172Z,59.10
2019-06-01T10:02:27.919Z,59.60
2019-06-01T10:06:32.628Z,60.40
2019-06-01T10:10:38.084Z,59.70
2019-06-01T10:14:42.772Z,60.70
2019-06-01T10:18:47.333Z,60.80
2019-06-01T10:22:51.904Z,60.50
2019-06-01T10:26:56.441Z,61.60
2019-06-01T10:31:01.017Z,61.90
2019-06-01T10:35:05.907Z,62.10
2019-06-01T10:39:10.485Z,62.50
2019-06-01T10:43:15.109Z,62.30
2019-06-01T10:47:19.629Z,62.60
2019-06-01T10:51:24.520Z,62.90
2019-06-01T10:55:29.078Z,62.70
2019-06-01T10:59:34.291Z,62.80
2019-06-01T11:03:38.934Z,62.00
2019-06-01T11:07:43.451Z,62.40
2019-06-01T11:11:48.025Z,62.00
2019-06-01T11:15:52.584Z,62.20
2019-06-01T11:19:57.141Z,61.50
2019-06-01T11:24:01.739Z,61.30
2019-06-01T11:28:06.377Z,62.10
2019-06-01T11:32:10.905Z,62.50
2019-06-01T11:36:15.468Z,62.50
2019-06-01T11:40:20.033Z,62.60
2019-06-01T11:44:24.616Z,61.90
2019-06-01T11:48:29.211Z,62.00
2019-06-01T11:52:34.869Z,62.40
2019-06-01T11:56:39.502Z,62.50
2019-06-01T12:00:44.233Z,62.90
2019-06-01T12:04:48.788Z,62.90
2019-06-01T12:08:53.349Z,62.60
2019-06-01T12:12:57.916Z,62.00
2019-06-01T12:17:02.479Z,62.00
2019-06-01T12:21:08.415Z,62.10
2019-06-01T12:25:13.485Z,60.80
2019-06-01T12:29:18.057Z,61.60
2019-06-01T12:33:22.628Z,61.40
2019-06-01T12:37:45.415Z,61.20
2019-06-01T12:41:33.902Z,62.70
2019-06-01T12:45:39.588Z,61.60
2019-06-01T12:49:52.536Z,61.50
2019-06-01T12:53:58.548Z,62.40
2019-06-01T12:58:08.909Z,62.20
2019-06-01T13:02:13.545Z,59.10
2019-06-01T13:06:19.177Z,60.60
2019-06-01T13:10:23.769Z,60.10
2019-06-01T13:14:28.332Z,60.90
2019-06-01T13:18:32.901Z,60.70
2019-06-01T13:22:37.524Z,60.40
2019-06-01T13:26:43.634Z,60.50
2019-06-01T13:30:49.656Z,61.30
2019-06-01T13:34:54.584Z,60.10
2019-06-01T13:38:59.607Z,61.10
2019-06-01T13:43:04.160Z,60.70
2019-06-01T13:47:08.704Z,59.10
2019-06-01T13:51:13.265Z,59.50
2019-06-01T13:55:17.807Z,60.10
2019-06-01T13:59:22.365Z,59.10
2019-06-01T14:03:26.925Z,59.30
2019-06-01T14:07:31.481Z,59.20
2019-06-01T14:11:36.092Z,59.90
2019-06-01T14:15:40.728Z,58.60
2019-06-01T14:19:45.648Z,58.40
2019-06-01T14:23:50.413Z,58.40
2019-06-01T14:27:56.324Z,58.80
2019-06-01T14:32:01.069Z,58.00
2019-06-01T14:36:05.624Z,59.50
2019-06-01T14:40:10.305Z,58.50
2019-06-01T14:44:14.857Z,58.20
2019-06-01T14:48:19.423Z,57.10
2019-06-01T14:52:23.979Z,58.70
2019-06-01T14:56:28.564Z,59.40
2019-06-01T15:00:33.121Z,58.80
2019-06-01T15:04:37.691Z,58.70
2019-06-01T15:08:42.237Z,59.40
2019-06-01T15:12:52.481Z,58.50
2019-06-01T15:16:53.980Z,57.80
2019-06-01T15:20:58.644Z,58.50
2019-06-01T15:25:03.682Z,58.80
2019-06-01T15:29:08.453Z,58.80
2019-06-01T15:33:13.009Z,58.60
2019-06-01T15:37:17.605Z,58.60
2019-06-01T15:41:22.160Z,58.20
2019-06-01T15:45:26.716Z,57.70
2019-06-01T15:49:31.298Z,56.90
2019-06-01T15:53:35.858Z,56.00
2019-06-01T15:57:40.468Z,57.60
2019-06-01T16:01:45.007Z,57.90
2019-06-01T16:05:49.574Z,57.50
2019-06-01T16:09:55.330Z,57.60
2019-06-01T16:13:59.997Z,58.00
2019-06-01T16:18:04.682Z,57.30
2019-06-01T16:22:09.247Z,56.20
2019-06-01T16:26:16.347Z,56.00
2019-06-01T16:30:20.119Z,57.30
2019-06-01T16:34:24.699Z,58.00
2019-06-01T16:38:29.281Z,56.90
2019-06-01T16:42:33.828Z,56.90
2019-06-01T16:46:38.377Z,56.70
2019-06-01T16:50:42.956Z,57.20
2019-06-01T16:54:47.540Z,55.80
2019-06-01T16:58:52.156Z,56.70
2019-06-01T17:02:56.924Z,57.10
2019-06-01T17:07:05.009Z,56.70
2019-06-01T17:11:07.698Z,56.80
2019-06-01T17:15:14.203Z,56.80
2019-06-01T17:19:18.757Z,56.70
2019-06-01T17:23:27.479Z,57.20
2019-06-01T17:27:29.554Z,57.10
2019-06-01T17:31:34.077Z,57.10
2019-06-01T17:35:38.742Z,57.60
2019-06-01T17:39:43.329Z,57.60
2019-06-01T17:43:48.009Z,57.80
2019-06-01T17:47:52.529Z,58.00
2019-06-01T17:51:57.109Z,58.10
2019-06-01T17:56:01.916Z,58.00
2019-06-01T18:00:07.743Z,57.90
2019-06-01T18:04:12.360Z,57.50
2019-06-01T18:08:16.913Z,57.70
2019-06-01T18:12:21.449Z,58.00
2019-06-01T18:16:26.832Z,58.10
2019-06-01T18:20:31.814Z,58.30
2019-06-01T18:24:36.353Z,58.30
2019-06-01T18:28:40.855Z,58.50
2019-06-01T18:32:45.401Z,58.70
2019-06-01T18:36:49.960Z,58.80
2019-06-01T18:41:08.819Z,58.80
2019-06-01T18:45:00.907Z,59.10
2019-06-01T18:49:05.803Z,58.90
2019-06-01T18:53:10.386Z,59.00
2019-06-01T18:57:20.563Z,59.00
2019-06-01T19:01:21.419Z,59.00
2019-06-01T19:05:26.034Z,59.10
2019-06-01T19:09:30.611Z,59.20
2019-06-01T19:13:35.092Z,59.10
2019-06-01T19:17:39.663Z,59.10
2019-06-01T19:21:44.212Z,59.10
2019-06-01T19:25:50.002Z,59.10
2019-06-01T19:29:54.560Z,59.20
2019-06-01T19:33:59.112Z,59.10
2019-06-01T19:38:03.972Z,59.10
2019-06-01T19:42:09.168Z,59.10
2019-06-01T19:46:13.993Z,59.20
2019-06-01T19:50:18.560Z,59.40
2019-06-01T19:54:23.074Z,59.30
2019-06-01T19:58:27.664Z,59.50
2019-06-01T20:02:34.347Z,59.30
2019-06-01T20:06:38.432Z,59.70
2019-06-01T20:10:42.968Z,60.00
2019-06-01T20:14:47.520Z,60.90
2019-06-01T20:18:52.088Z,61.10
2019-06-01T20:22:56.666Z,61.00
2019-06-01T20:27:01.220Z,60.70
2019-06-01T20:31:05.736Z,60.90
2019-06-01T20:35:11.731Z,60.90
2019-06-01T20:39:16.460Z,61.40
2019-06-01T20:43:21.027Z,61.20
2019-06-01T20:47:25.580Z,61.40
2019-06-01T20:51:30.105Z,61.60
2019-06-01T20:55:34.663Z,62.40
2019-06-01T20:59:39.253Z,62.20
2019-06-01T21:03:43.920Z,62.00
2019-06-01T21:07:48.491Z,62.30
2019-06-01T21:15:56.940Z,61.70
2019-06-01T21:20:04.667Z,62.50
2019-06-01T21:24:07.741Z,62.60
2019-06-01T21:28:14.847Z,62.60
2019-06-01T21:32:19.249Z,62.70
2019-06-01T21:36:23.872Z,62.60
2019-06-01T21:40:28.431Z,62.70
2019-06-01T21:44:32.980Z,62.90
2019-06-01T21:48:37.546Z,63.30
2019-06-01T21:52:42.061Z,63.70
2019-06-01T21:56:46.624Z,62.90
2019-06-01T22:00:51.424Z,62.90
2019-06-01T22:04:55.981Z,62.80
2019-06-01T22:09:00.579Z,62.90
2019-06-01T22:13:18.048Z,62.80
2019-06-01T22:17:11.313Z,62.80
2019-06-01T22:21:15.866Z,62.90
2019-06-01T22:25:20.932Z,62.90
2019-06-01T22:29:26.691Z,62.80
2019-06-01T22:33:31.228Z,62.80
2019-06-01T22:37:35.800Z,62.80
2019-06-01T22:41:40.385Z,62.80
2019-06-01T22:45:44.940Z,62.90
2019-06-01T22:49:49.489Z,62.80
2019-06-01T22:53:54.134Z,62.80
2019-06-01T22:57:58.742Z,62.90
2019-06-01T23:02:03.305Z,63.10
2019-06-01T23:06:07.867Z,63.10
2019-06-01T23:10:12.417Z,63.20
2019-06-01T23:14:16.992Z,63.20
2019-06-01T23:18:21.762Z,63.30
2019-06-01T23:22:26.413Z,63.30
2019-06-01T23:26:32.264Z,63.40
2019-06-01T23:30:37.072Z,63.40
2019-06-01T23:34:41.608Z,63.40
2019-06-01T23:38:46.132Z,63.40
2019-06-01T23:42:50.697Z,63.40
2019-06-01T23:46:55.264Z,63.50
2019-06-01T23:50:59.857Z,63.60
2019-06-01T23:55:04.576Z,63.70
2019-06-01T23:59:09.157Z,63.70
